Terminal Aerodrome Forecast
Issued by NWS

Home | Current Version | Previous Version | Text Only | Print | Product List | Glossary On
Versions: 1 2 3 4 5 6 7 8 9 10 11 12 13 14 15 16
000
FTUS42 TJSJ 230011 AAA
TAFJBQ
TAF AMD
TJBQ 230011Z 2300/2324 10007KT P6SM VCSH SCT022 SCT090
      TEMPO 2300/2301 RA BKN020
     FM231330 08014KT P6SM SCT025 SCT050
     FM231730 07015G22KT P6SM VCTS SCT025CB BKN060
     FM232300 09010KT P6SM SCT030 SCT110
      AMD NOT SKED 2302/2311=

USA.gov is the U.S. government's official web portal to all federal, state and local government web resources and services.